Time;durP1;ratioP1;P1;durP2;ratioP2;P2;SDS_P1;SDS_P2;PMS_P1;PMS_P2;Temp;Humidity;BMP_temperature;BMP_pressure;BME280_temperature;BME280_humidity;BME280_pressure;Samples;Min_cycle;Max_cycle;Signal;HPM_P1;HPM_P2
2022/01/16 00:00:31;;;;;;;97.15;31.77;;;;;;;1.30;100.00;102087.44;5010622;28;20025;-75
2022/01/16 00:05:27;;;;;;;85.85;29.05;;;;;;;1.22;100.00;102093.75;5045262;28;20037;-75
2022/01/16 00:07:53;;;;;;;89.38;30.95;;;;;;;1.24;100.00;102110.66;5049400;28;20040;-75
2022/01/16 00:10:19;;;;;;;104.45;31.85;;;;;;;1.31;100.00;102114.63;5051769;28;20123;-75
2022/01/16 00:12:49;;;;;;;98.30;31.67;;;;;;;1.28;100.00;102121.59;5042784;28;20071;-75
2022/01/16 00:15:19;;;;;;;94.45;29.33;;;;;;;1.23;100.00;102110.75;5045512;28;20044;-75
2022/01/16 00:20:30;;;;;;;98.45;30.65;;;;;;;1.23;100.00;102105.66;5037906;28;20033;-75
2022/01/16 00:22:56;;;;;;;105.60;27.88;;;;;;;1.15;100.00;102119.56;5052838;28;20094;-75
2022/01/16 00:25:22;;;;;;;78.20;26.38;;;;;;;1.12;100.00;102122.22;5031287;28;20501;-75
2022/01/16 00:27:48;;;;;;;81.25;26.42;;;;;;;1.10;100.00;102112.97;5049563;28;20037;-75
2022/01/16 00:30:14;;;;;;;95.70;29.65;;;;;;;1.11;100.00;102112.06;5045497;28;20569;-75
2022/01/16 00:32:39;;;;;;;95.00;30.50;;;;;;;1.16;100.00;102112.72;5027309;28;20147;-75
2022/01/16 00:35:06;;;;;;;93.05;29.10;;;;;;;1.13;100.00;102115.38;5047071;28;20020;-75
2022/01/16 00:37:31;;;;;;;105.28;31.63;;;;;;;1.16;100.00;102136.53;5047200;28;20116;-75
2022/01/16 00:39:57;;;;;;;95.60;30.25;;;;;;;1.16;100.00;102143.38;5045096;28;20440;-75
2022/01/16 00:42:22;;;;;;;98.95;29.08;;;;;;;1.17;100.00;102156.09;5028771;28;20434;-75
2022/01/16 00:44:48;;;;;;;95.18;31.35;;;;;;;1.19;100.00;102150.09;5041886;28;20357;-75
2022/01/16 00:47:13;;;;;;;100.25;30.55;;;;;;;1.17;100.00;102134.84;5045375;28;20037;-75
2022/01/16 00:49:41;;;;;;;96.72;31.15;;;;;;;1.19;100.00;102140.72;5059385;28;20028;-75
2022/01/16 00:52:07;;;;;;;105.03;30.85;;;;;;;1.26;100.00;102143.84;5046296;28;20033;-75
2022/01/16 00:54:33;;;;;;;93.18;29.60;;;;;;;1.27;100.00;102133.56;5027971;28;20127;-75
2022/01/16 00:56:58;;;;;;;92.60;30.60;;;;;;;1.23;100.00;102132.03;5047173;28;20086;-75
2022/01/16 00:59:24;;;;;;;77.05;26.67;;;;;;;1.19;100.00;102124.53;5046671;28;20033;-75
2022/01/16 01:01:50;;;;;;;70.97;25.67;;;;;;;1.17;100.00;102109.28;5029772;28;20093;-75
2022/01/16 01:04:16;;;;;;;70.95;27.23;;;;;;;1.17;100.00;102091.41;5027366;28;20390;-75
2022/01/16 01:06:41;;;;;;;70.85;25.35;;;;;;;1.12;100.00;102114.56;5044092;28;20037;-75
2022/01/16 01:09:07;;;;;;;62.85;24.80;;;;;;;1.21;100.00;102128.72;5047329;28;20032;-75
2022/01/16 01:11:33;;;;;;;67.93;25.00;;;;;;;1.24;100.00;102122.63;5043758;28;20039;-74
2022/01/16 01:16:48;;;;;;;73.13;25.90;;;;;;;1.13;100.00;102115.38;5026820;28;20498;-74
2022/01/16 01:19:13;;;;;;;60.13;23.30;;;;;;;1.22;100.00;102130.34;5046614;28;20037;-75
2022/01/16 01:21:39;;;;;;;64.97;22.83;;;;;;;1.11;100.00;102109.50;5044714;28;20028;-75
2022/01/16 01:24:05;;;;;;;60.22;21.08;;;;;;;1.13;100.00;102120.50;5037354;28;20047;-75
2022/01/16 01:26:36;;;;;;;67.07;23.65;;;;;;;1.02;100.00;102148.22;5045917;28;20029;-75
2022/01/16 01:29:02;;;;;;;61.33;21.15;;;;;;;1.15;100.00;102139.19;5045149;28;20033;-75
2022/01/16 01:31:29;;;;;;;61.90;21.67;;;;;;;1.14;100.00;102137.50;5045184;28;20144;-75
2022/01/16 01:33:55;;;;;;;61.58;21.15;;;;;;;1.05;100.00;102136.16;5043177;28;20124;-74
2022/01/16 01:36:21;;;;;;;55.67;21.35;;;;;;;1.16;100.00;102076.94;5044998;28;20052;-75
2022/01/16 01:38:46;;;;;;;59.67;20.88;;;;;;;1.10;100.00;102056.78;5036126;28;20036;-75
2022/01/16 01:41:12;;;;;;;56.28;21.00;;;;;;;1.08;100.00;102061.13;5033758;28;20406;-75
2022/01/16 01:51:38;;;;;;;69.65;23.25;;;;;;;1.12;100.00;102099.25;5043292;28;20036;-75
2022/01/16 01:54:05;;;;;;;62.03;21.45;;;;;;;1.04;100.00;102105.56;5045993;28;20032;-75
2022/01/16 01:56:31;;;;;;;63.05;22.60;;;;;;;1.10;100.00;102123.19;5031910;28;20116;-75
2022/01/16 01:58:59;;;;;;;64.13;22.58;;;;;;;1.05;100.00;102123.38;5026918;28;20140;-75
2022/01/16 02:01:27;;;;;;;67.28;23.70;;;;;;;1.17;100.00;102116.94;5011329;28;20200;-75
2022/01/16 02:03:52;;;;;;;61.42;22.05;;;;;;;1.13;100.00;102131.56;5045964;28;20471;-75
2022/01/16 02:06:27;;;;;;;65.28;24.20;;;;;;;1.16;100.00;102125.50;5043387;28;20509;-75
2022/01/16 02:08:55;;;;;;;61.45;24.80;;;;;;;1.14;100.00;102117.88;5047132;28;20269;-75
2022/01/16 02:11:26;;;;;;;65.47;25.88;;;;;;;1.10;100.00;102107.88;5026093;28;20123;-75
2022/01/16 02:14:02;;;;;;;66.38;25.45;;;;;;;1.09;100.00;102111.31;5046166;28;20562;-75
2022/01/16 02:36:01;;;;;;;64.00;26.77;;;;;;;1.00;100.00;102120.19;5044457;28;20029;-75
2022/01/16 02:38:26;;;;;;;69.32;26.27;;;;;;;1.12;100.00;102129.06;5010902;28;20514;-75
2022/01/16 02:40:58;;;;;;;66.65;25.83;;;;;;;0.96;100.00;102121.19;5012219;28;20505;-75
2022/01/16 02:43:30;;;;;;;63.22;27.42;;;;;;;1.04;100.00;102118.34;5049968;28;20041;-75
2022/01/16 02:48:55;;;;;;;67.40;27.83;;;;;;;0.95;100.00;102094.81;5016836;28;20517;-74
2022/01/16 02:51:24;;;;;;;59.58;26.02;;;;;;;1.03;99.58;102091.13;5045791;28;20123;-74
2022/01/16 02:53:50;;;;;;;64.70;27.83;;;;;;;0.94;99.24;102107.66;5049500;28;20398;-75
2022/01/16 02:56:17;;;;;;;64.57;26.05;;;;;;;0.91;99.84;102112.91;5050379;28;20616;-74
2022/01/16 02:58:43;;;;;;;63.53;26.25;;;;;;;0.78;99.84;102112.53;5037732;28;20041;-75
2022/01/16 03:01:09;;;;;;;71.10;27.65;;;;;;;0.78;100.00;102100.59;5021106;28;20033;-75
2022/01/16 03:03:35;;;;;;;78.10;29.42;;;;;;;0.84;99.84;102093.59;5051789;28;20883;-75
2022/01/16 03:06:00;;;;;;;75.00;28.05;;;;;;;0.76;99.73;102099.00;5049981;28;20042;-75
2022/01/16 03:08:26;;;;;;;72.30;28.00;;;;;;;0.72;100.00;102094.91;5034463;28;20052;-75
2022/01/16 03:13:22;;;;;;;60.70;27.38;;;;;;;0.73;99.97;102071.03;5050091;28;20029;-75
2022/01/16 03:15:51;;;;;;;76.03;29.48;;;;;;;0.68;99.88;102072.94;5034223;28;20125;-75
2022/01/16 03:23:27;;;;;;;79.35;31.70;;;;;;;0.67;100.00;102063.63;5032820;28;20402;-75
2022/01/16 03:25:53;;;;;;;85.63;34.63;;;;;;;0.67;100.00;102066.16;5049447;28;20032;-75
2022/01/16 03:28:19;;;;;;;83.13;32.45;;;;;;;0.68;100.00;102065.25;5032799;28;20028;-75
2022/01/16 03:30:46;;;;;;;84.78;32.70;;;;;;;0.65;100.00;102050.91;5053937;28;20040;-75
2022/01/16 03:33:12;;;;;;;92.20;34.20;;;;;;;0.63;100.00;102047.59;5046166;28;20406;-76
2022/01/16 03:35:38;;;;;;;98.82;36.65;;;;;;;0.65;100.00;102048.34;5055772;28;20044;-75
2022/01/16 03:38:04;;;;;;;87.20;34.70;;;;;;;0.65;100.00;102052.63;5048821;28;20029;-75
2022/01/16 03:40:29;;;;;;;92.72;36.75;;;;;;;0.71;100.00;102057.50;5034460;28;20037;-75
2022/01/16 03:43:05;;;;;;;93.72;35.08;;;;;;;0.70;100.00;102058.41;5037218;28;20074;-75
2022/01/16 03:45:31;;;;;;;93.80;35.47;;;;;;;0.72;100.00;102062.53;5032851;28;20119;-75
2022/01/16 03:47:58;;;;;;;101.43;37.47;;;;;;;0.72;100.00;102057.44;5030044;28;20124;-74
2022/01/16 03:50:24;;;;;;;93.35;35.00;;;;;;;0.69;100.00;102054.19;5051441;28;20669;-75
2022/01/16 03:52:49;;;;;;;105.28;38.03;;;;;;;0.73;100.00;102058.25;5045094;28;20037;-75
2022/01/16 03:55:15;;;;;;;101.28;38.42;;;;;;;0.73;100.00;102061.63;5028884;28;20430;-75
2022/01/16 03:57:40;;;;;;;97.18;37.95;;;;;;;0.74;100.00;102072.69;5031439;28;20045;-75
2022/01/16 04:00:07;;;;;;;100.15;36.35;;;;;;;0.73;100.00;102066.75;5047103;28;20036;-75
2022/01/16 04:02:33;;;;;;;101.28;37.35;;;;;;;0.75;100.00;102066.69;5052709;28;20029;-74
2022/01/16 04:04:58;;;;;;;97.68;37.75;;;;;;;0.82;100.00;102070.66;5039674;28;21411;-75
2022/01/16 04:07:28;;;;;;;101.25;38.00;;;;;;;0.82;100.00;102067.28;5031920;28;20045;-75
2022/01/16 04:09:54;;;;;;;104.65;39.83;;;;;;;0.80;100.00;102069.06;5060381;28;20044;-75
2022/01/16 04:12:23;;;;;;;89.03;36.55;;;;;;;0.80;100.00;102074.19;5036810;28;20060;-75
2022/01/16 04:17:22;;;;;;;100.60;39.67;;;;;;;0.85;100.00;102062.03;5046300;28;20037;-75
2022/01/16 04:19:49;;;;;;;95.00;37.08;;;;;;;0.84;100.00;102063.75;5031529;28;20480;-75
2022/01/16 04:22:14;;;;;;;99.80;37.10;;;;;;;0.86;100.00;102058.59;5031419;28;20293;-75
2022/01/16 04:24:41;;;;;;;108.47;41.72;;;;;;;0.87;100.00;102057.72;5034933;28;20032;-75
2022/01/16 04:27:10;;;;;;;113.43;41.15;;;;;;;0.92;100.00;102066.88;5047148;28;20671;-75
2022/01/16 04:29:35;;;;;;;103.55;38.85;;;;;;;0.91;100.00;102060.06;5062356;28;20174;-75
2022/01/16 04:32:01;;;;;;;103.28;38.92;;;;;;;0.94;100.00;102062.53;5042404;28;20180;-75
2022/01/16 04:34:26;;;;;;;107.85;38.53;;;;;;;0.95;100.00;102064.16;5022529;28;20037;-75
2022/01/16 04:36:52;;;;;;;91.82;39.45;;;;;;;0.97;100.00;102059.81;5048189;28;20029;-75
2022/01/16 04:39:20;;;;;;;89.03;37.38;;;;;;;1.01;100.00;102073.31;5062404;28;20090;-75
2022/01/16 04:44:30;;;;;;;86.88;35.97;;;;;;;1.04;100.00;102074.91;5043733;28;20256;-75
2022/01/16 04:46:56;;;;;;;87.45;36.28;;;;;;;1.02;100.00;102077.53;5028812;28;20060;-75
2022/01/16 04:49:22;;;;;;;85.65;33.80;;;;;;;1.02;100.00;102076.69;5047253;28;20039;-75
2022/01/16 04:51:47;;;;;;;91.45;37.40;;;;;;;1.04;100.00;102070.63;5044907;28;20021;-75
2022/01/16 04:54:13;;;;;;;97.45;38.60;;;;;;;1.07;100.00;102079.88;5046082;28;20086;-75
2022/01/16 04:56:39;;;;;;;85.55;35.60;;;;;;;1.21;100.00;102064.81;5029213;28;20064;-75
2022/01/16 04:59:04;;;;;;;88.47;36.38;;;;;;;1.14;100.00;102060.84;5022794;28;20439;-75
2022/01/16 05:01:30;;;;;;;83.57;33.92;;;;;;;1.15;100.00;102049.75;5029176;28;20039;-75
2022/01/16 05:03:55;;;;;;;81.53;36.78;;;;;;;1.16;100.00;102053.94;5050412;28;20391;-75
2022/01/16 05:06:21;;;;;;;90.18;35.28;;;;;;;1.28;100.00;102047.47;5029219;28;20033;-75
2022/01/16 05:08:47;;;;;;;79.90;34.63;;;;;;;1.19;100.00;102041.06;5028945;28;20498;-74
2022/01/16 05:11:15;;;;;;;81.60;35.42;;;;;;;1.22;100.00;102043.47;5046674;28;20036;-75
2022/01/16 05:18:53;;;;;;;86.55;35.20;;;;;;;1.26;100.00;102044.16;5046872;28;20423;-75
2022/01/16 05:21:19;;;;;;;78.05;34.38;;;;;;;1.27;100.00;102049.22;5028381;28;20421;-75
2022/01/16 05:23:44;;;;;;;82.15;34.28;;;;;;;1.25;100.00;102039.97;5045090;28;20110;-75
2022/01/16 05:26:11;;;;;;;86.95;36.92;;;;;;;1.25;100.00;102045.91;5048409;28;20507;-75
2022/01/16 05:28:37;;;;;;;87.25;36.58;;;;;;;1.30;100.00;102043.13;5046040;28;20035;-75
2022/01/16 05:31:03;;;;;;;82.68;36.47;;;;;;;1.26;100.00;102054.38;5029377;28;20036;-75
2022/01/16 05:33:29;;;;;;;93.05;37.88;;;;;;;1.32;100.00;102060.09;5034729;28;20033;-75
2022/01/16 05:35:54;;;;;;;85.90;36.20;;;;;;;1.28;100.00;102052.59;5027928;28;20759;-75
2022/01/16 05:38:20;;;;;;;90.68;39.08;;;;;;;1.29;100.00;102059.38;5030738;28;20025;-75
2022/01/16 05:40:46;;;;;;;88.00;37.33;;;;;;;1.30;100.00;102061.88;5046034;28;20615;-75
2022/01/16 05:43:12;;;;;;;82.40;39.00;;;;;;;1.28;100.00;102061.13;5028477;28;20020;-75
2022/01/16 05:45:38;;;;;;;89.05;38.10;;;;;;;1.28;100.00;102056.00;5035260;28;20406;-75
2022/01/16 05:48:04;;;;;;;86.93;37.45;;;;;;;1.29;100.00;102060.19;5031058;28;20036;-75
2022/01/16 05:50:31;;;;;;;87.25;38.42;;;;;;;1.33;100.00;102061.72;5032320;28;20039;-75
2022/01/16 05:53:01;;;;;;;88.13;38.88;;;;;;;1.34;100.00;102070.25;5030115;28;20489;-75
2022/01/16 05:55:29;;;;;;;89.28;38.83;;;;;;;1.46;100.00;102071.44;5055360;28;20045;-75
2022/01/16 05:57:55;;;;;;;92.07;39.55;;;;;;;1.45;100.00;102067.22;5046189;28;20656;-75
2022/01/16 06:00:21;;;;;;;94.70;39.10;;;;;;;1.40;100.00;102061.50;5063820;28;20036;-75
2022/01/16 06:02:46;;;;;;;92.43;40.42;;;;;;;1.37;100.00;102047.09;5024522;28;20123;-75
2022/01/16 06:05:12;;;;;;;94.70;40.58;;;;;;;1.32;100.00;102047.31;5026434;28;20491;-75
2022/01/16 06:07:40;;;;;;;95.63;39.33;;;;;;;1.36;100.00;102040.34;5028725;28;20091;-75
2022/01/16 06:10:06;;;;;;;100.85;40.35;;;;;;;1.45;100.00;102044.22;5027897;28;20578;-75
2022/01/16 06:12:32;;;;;;;98.18;39.05;;;;;;;1.53;100.00;102042.16;5049477;28;20084;-75
2022/01/16 06:14:58;;;;;;;96.95;40.65;;;;;;;1.46;100.00;102046.69;5042587;28;20514;-75
2022/01/16 06:17:23;;;;;;;90.18;39.13;;;;;;;1.52;100.00;102055.84;5039753;28;20040;-75
2022/01/16 06:19:48;;;;;;;97.18;40.55;;;;;;;1.48;100.00;102054.31;5028478;28;20438;-75
2022/01/16 06:22:14;;;;;;;86.10;38.35;;;;;;;1.42;100.00;102049.47;5046455;28;20040;-75
2022/01/16 06:24:39;;;;;;;97.72;40.80;;;;;;;1.50;100.00;102050.78;5027635;28;20048;-75
2022/01/16 06:27:05;;;;;;;91.93;40.83;;;;;;;1.50;100.00;102057.63;5011223;28;20036;-75
2022/01/16 06:29:30;;;;;;;98.68;41.05;;;;;;;1.63;100.00;102066.41;5027047;28;20049;-75
2022/01/16 06:31:56;;;;;;;94.72;40.90;;;;;;;1.61;100.00;102070.78;5045628;28;20028;-75
2022/01/16 06:34:21;;;;;;;103.90;43.13;;;;;;;1.58;100.00;102075.19;5045449;28;20521;-75
2022/01/16 06:36:47;;;;;;;105.05;42.38;;;;;;;1.54;100.00;102072.78;5044874;28;20033;-75
2022/01/16 06:39:13;;;;;;;94.80;42.13;;;;;;;1.64;100.00;102083.44;5044453;28;20036;-74
2022/01/16 06:41:39;;;;;;;98.05;42.25;;;;;;;1.69;100.00;102093.47;5039659;28;20120;-75
2022/01/16 06:44:05;;;;;;;93.05;41.03;;;;;;;1.67;100.00;102082.47;5029358;28;20041;-75
2022/01/16 06:46:31;;;;;;;100.45;43.15;;;;;;;1.69;100.00;102086.59;5036559;28;20029;-75
2022/01/16 06:48:56;;;;;;;95.13;41.45;;;;;;;1.63;100.00;102075.84;5031095;28;20048;-75
2022/01/16 06:51:24;;;;;;;102.53;43.05;;;;;;;1.77;100.00;102080.34;5044519;28;20296;-75
2022/01/16 06:53:53;;;;;;;105.30;42.60;;;;;;;1.80;100.00;102075.09;5010818;28;20207;-75
2022/01/16 06:56:20;;;;;;;100.82;42.63;;;;;;;1.79;100.00;102068.31;5044265;28;20025;-74
2022/01/16 06:58:45;;;;;;;98.72;42.95;;;;;;;1.80;100.00;102072.53;5046488;28;20487;-75
2022/01/16 07:01:11;;;;;;;97.40;43.15;;;;;;;1.82;100.00;102074.13;5045124;28;20051;-75
2022/01/16 07:03:37;;;;;;;104.72;43.58;;;;;;;1.90;100.00;102081.44;5045125;28;20048;-75
2022/01/16 07:06:04;;;;;;;99.80;42.78;;;;;;;1.78;100.00;102074.34;5028096;28;20189;-75
2022/01/16 07:08:30;;;;;;;97.05;44.22;;;;;;;1.80;100.00;102095.56;5042726;28;20045;-75
2022/01/16 07:10:57;;;;;;;103.28;43.88;;;;;;;1.85;100.00;102086.78;5010831;28;20394;-75
2022/01/16 07:13:28;;;;;;;98.28;43.25;;;;;;;1.92;100.00;102092.44;5027431;28;20095;-75
2022/01/16 07:15:53;;;;;;;106.10;45.42;;;;;;;1.81;100.00;102098.06;5026658;28;20107;-75
2022/01/16 07:18:19;;;;;;;103.65;43.80;;;;;;;1.82;100.00;102104.00;5034907;28;20036;-75
2022/01/16 07:20:45;;;;;;;103.80;44.70;;;;;;;1.93;100.00;102107.72;5045560;28;20491;-75
2022/01/16 07:23:12;;;;;;;106.18;44.55;;;;;;;1.82;100.00;102109.94;5026495;28;20055;-75
2022/01/16 07:25:38;;;;;;;114.32;48.15;;;;;;;1.81;100.00;102112.53;5044858;28;20033;-75
2022/01/16 07:28:04;;;;;;;102.15;45.55;;;;;;;1.91;100.00;102118.94;5044589;28;20037;-75
2022/01/16 07:30:30;;;;;;;111.60;46.90;;;;;;;1.98;100.00;102115.22;5049411;28;20029;-75
2022/01/16 07:32:55;;;;;;;98.95;45.78;;;;;;;2.02;100.00;102116.72;5048720;28;20061;-75
2022/01/16 07:35:21;;;;;;;112.10;46.05;;;;;;;2.01;100.00;102119.34;5045769;28;20118;-75
2022/01/16 07:37:47;;;;;;;103.90;45.22;;;;;;;2.02;99.74;102126.16;5032169;28;20071;-75
2022/01/16 07:40:13;;;;;;;111.90;47.30;;;;;;;1.99;100.00;102139.06;5032821;28;20058;-75
2022/01/16 07:42:39;;;;;;;104.47;46.03;;;;;;;1.93;99.97;102132.50;5035220;28;20098;-75
2022/01/16 07:45:04;;;;;;;104.07;44.95;;;;;;;2.08;100.00;102125.88;5050999;28;20044;-75
2022/01/16 07:47:30;;;;;;;103.15;44.75;;;;;;;2.00;99.91;102136.44;5042117;28;20086;-75
2022/01/16 07:49:55;;;;;;;108.40;44.25;;;;;;;2.13;100.00;102142.69;5033300;28;20048;-76
2022/01/16 07:52:21;;;;;;;111.82;47.58;;;;;;;2.11;99.82;102135.94;5050456;28;20055;-76
2022/01/16 07:54:46;;;;;;;110.57;49.03;;;;;;;2.20;99.67;102140.66;5044270;28;20033;-75
2022/01/16 07:57:12;;;;;;;142.63;56.20;;;;;;;2.27;99.00;102146.34;5033921;28;20623;-76
2022/01/16 07:59:37;;;;;;;110.32;47.88;;;;;;;2.30;98.96;102152.16;5028799;28;20041;-75
2022/01/16 08:02:04;;;;;;;107.43;45.80;;;;;;;2.27;98.60;102152.28;5043993;28;20024;-75
2022/01/16 08:04:29;;;;;;;107.95;44.30;;;;;;;2.21;99.36;102150.00;5029078;28;20041;-75
2022/01/16 08:06:55;;;;;;;97.28;43.92;;;;;;;2.36;98.78;102153.63;5053103;28;20044;-76
2022/01/16 08:09:20;;;;;;;117.60;46.75;;;;;;;2.26;98.91;102149.78;5028934;28;20040;-75
2022/01/16 08:11:46;;;;;;;119.18;51.88;;;;;;;2.31;99.21;102147.84;5026180;28;20142;-76
2022/01/16 08:14:11;;;;;;;113.07;47.88;;;;;;;2.25;99.22;102150.72;5046582;28;20043;-75
2022/01/16 08:16:37;;;;;;;108.00;46.30;;;;;;;2.26;98.97;102153.19;5045596;28;20033;-75
2022/01/16 08:19:02;;;;;;;110.32;46.30;;;;;;;2.19;99.27;102148.44;5031755;28;20024;-75
2022/01/16 08:21:29;;;;;;;110.65;47.67;;;;;;;2.32;99.09;102146.97;5047509;28;20040;-75
2022/01/16 08:23:54;;;;;;;134.73;58.83;;;;;;;2.24;99.13;102141.34;5046287;28;20395;-76
2022/01/16 08:26:20;;;;;;;106.75;44.58;;;;;;;2.29;99.01;102140.25;5048066;28;20497;-75
2022/01/16 08:28:45;;;;;;;102.80;42.67;;;;;;;2.32;98.89;102134.19;5047101;28;20025;-75
2022/01/16 08:31:11;;;;;;;109.85;45.00;;;;;;;2.42;98.41;102135.41;5029800;28;20028;-75
2022/01/16 08:33:36;;;;;;;105.63;44.58;;;;;;;2.39;98.47;102132.16;5045680;28;20302;-75
2022/01/16 08:36:03;;;;;;;107.82;45.47;;;;;;;2.31;98.82;102138.44;5019061;28;20040;-75
2022/01/16 08:38:30;;;;;;;104.03;43.08;;;;;;;2.41;98.44;102148.25;5051809;28;20037;-76
2022/01/16 08:40:55;;;;;;;110.10;45.28;;;;;;;2.39;98.28;102166.25;5030290;28;20083;-76
2022/01/16 08:43:21;;;;;;;118.43;48.75;;;;;;;2.31;98.23;102160.66;5048521;28;20029;-75
2022/01/16 08:45:46;;;;;;;124.50;48.95;;;;;;;2.38;98.92;102164.59;5026922;28;20056;-75
2022/01/16 08:48:12;;;;;;;125.53;52.22;;;;;;;2.35;98.56;102159.63;5046081;28;20036;-76
2022/01/16 08:50:38;;;;;;;106.07;45.30;;;;;;;2.50;97.97;102171.72;5011750;28;20044;-76
2022/01/16 08:53:04;;;;;;;107.65;46.65;;;;;;;2.45;97.91;102165.16;5045930;28;20130;-75
2022/01/16 08:55:32;;;;;;;110.80;48.05;;;;;;;2.45;98.10;102176.25;5045413;28;20059;-75
2022/01/16 08:57:59;;;;;;;401.17;143.82;;;;;;;2.57;97.52;102182.53;5025939;28;20465;-75
2022/01/16 09:00:25;;;;;;;207.05;73.57;;;;;;;2.51;97.76;102183.63;5028074;28;20520;-76
2022/01/16 09:02:50;;;;;;;114.82;46.70;;;;;;;2.54;97.90;102185.22;5032881;28;20449;-76
2022/01/16 09:05:16;;;;;;;134.82;55.80;;;;;;;2.54;97.29;102177.53;5027631;28;20037;-75
2022/01/16 09:07:42;;;;;;;116.15;49.33;;;;;;;2.61;96.97;102181.47;5061164;28;20040;-76
2022/01/16 09:10:08;;;;;;;108.65;45.03;;;;;;;2.64;96.97;102183.09;5047490;28;20036;-75
2022/01/16 09:12:34;;;;;;;103.70;41.92;;;;;;;2.63;97.23;102189.91;5029384;28;20036;-75
2022/01/16 09:15:00;;;;;;;112.18;41.35;;;;;;;2.65;97.14;102188.13;5028467;28;20033;-75
2022/01/16 09:17:25;;;;;;;104.60;43.15;;;;;;;2.72;96.39;102189.50;5033237;28;20128;-76
2022/01/16 09:19:51;;;;;;;98.65;42.47;;;;;;;2.63;97.18;102189.09;5046152;28;20081;-76
2022/01/16 09:22:17;;;;;;;108.95;41.83;;;;;;;2.71;97.17;102192.97;5034444;28;20086;-75
2022/01/16 09:24:42;;;;;;;94.93;38.17;;;;;;;2.83;96.70;102201.00;5048621;28;20040;-75
2022/01/16 09:27:08;;;;;;;97.05;39.92;;;;;;;2.86;96.12;102201.69;5051629;28;20029;-76
2022/01/16 09:29:33;;;;;;;107.30;43.72;;;;;;;2.86;95.95;102205.97;5011610;28;20091;-76
2022/01/16 09:31:59;;;;;;;93.03;39.38;;;;;;;2.87;95.82;102213.59;5032897;28;20044;-76
2022/01/16 09:34:25;;;;;;;101.90;41.53;;;;;;;2.86;96.05;102217.06;5044869;28;20052;-76
2022/01/16 09:36:50;;;;;;;98.78;38.60;;;;;;;2.84;96.33;102226.53;5032415;28;20033;-75
2022/01/16 09:39:16;;;;;;;93.53;38.17;;;;;;;2.86;96.25;102229.88;5049246;28;20029;-75
2022/01/16 09:41:42;;;;;;;91.10;38.78;;;;;;;2.90;96.11;102222.84;5032492;28;20036;-76
2022/01/16 09:44:07;;;;;;;90.40;37.63;;;;;;;2.86;96.18;102219.63;5046363;28;20106;-75
2022/01/16 09:46:35;;;;;;;86.85;37.90;;;;;;;2.89;96.21;102221.19;5047141;28;20036;-75
2022/01/16 09:49:01;;;;;;;96.63;39.63;;;;;;;2.90;96.34;102223.69;5030860;28;20037;-75
2022/01/16 09:51:27;;;;;;;100.03;40.65;;;;;;;2.87;96.73;102231.50;5041311;28;20037;-75
2022/01/16 09:53:53;;;;;;;105.75;44.30;;;;;;;2.99;96.97;102232.66;5035509;28;20044;-75
2022/01/16 09:56:18;;;;;;;103.10;41.63;;;;;;;2.98;96.92;102237.91;5041838;28;20036;-75
2022/01/16 09:58:44;;;;;;;96.10;39.28;;;;;;;2.97;96.72;102242.16;5039206;28;20052;-75
2022/01/16 10:01:09;;;;;;;94.80;40.88;;;;;;;3.06;96.75;102230.66;5041769;28;20033;-75
2022/01/16 10:03:39;;;;;;;88.38;37.65;;;;;;;3.10;96.50;102234.75;5033409;28;20041;-75
2022/01/16 10:06:14;;;;;;;118.90;54.33;;;;;;;3.10;96.81;102235.56;5031058;28;20051;-75
2022/01/16 10:08:41;;;;;;;105.10;42.97;;;;;;;3.12;96.41;102238.06;5022405;28;20045;-75
2022/01/16 10:11:39;;;;;;;109.95;45.67;;;;;;;3.10;96.60;102245.81;5045859;28;20021;-75
2022/01/16 10:14:15;;;;;;;103.55;42.83;;;;;;;3.18;96.42;102249.75;5045105;28;20208;-74
2022/01/16 10:16:42;;;;;;;100.78;39.85;;;;;;;3.19;96.16;102239.44;5015767;28;20102;-75
2022/01/16 10:19:29;;;;;;;106.40;40.50;;;;;;;3.22;96.51;102251.25;5028126;28;20098;-75
2022/01/16 10:22:03;;;;;;;108.22;40.45;;;;;;;3.27;96.31;102244.19;5042192;28;20076;-76
2022/01/16 10:24:33;;;;;;;110.20;43.00;;;;;;;3.27;96.06;102247.59;5036393;28;20452;-75
2022/01/16 10:27:08;;;;;;;102.05;42.22;;;;;;;3.27;96.28;102245.03;5034809;28;20087;-75
2022/01/16 10:29:53;;;;;;;118.78;45.20;;;;;;;3.30;96.24;102249.19;5033119;28;20124;-76
2022/01/16 10:32:23;;;;;;;112.13;42.13;;;;;;;3.31;96.17;102248.28;5033185;28;20048;-75
2022/01/16 10:35:08;;;;;;;114.97;45.55;;;;;;;3.37;96.49;102254.84;5047068;28;20037;-76
2022/01/16 10:37:34;;;;;;;117.03;43.78;;;;;;;3.39;95.91;102251.31;5042703;28;20131;-75
2022/01/16 10:40:16;;;;;;;124.20;52.83;;;;;;;3.33;96.60;102256.72;5028616;28;20036;-75
2022/01/16 10:42:48;;;;;;;133.43;48.60;;;;;;;3.50;96.38;102248.22;5052148;28;20469;-75
2022/01/16 10:45:16;;;;;;;111.23;42.63;;;;;;;3.52;96.11;102251.53;5026559;28;20028;-75
2022/01/16 10:47:54;;;;;;;129.52;50.50;;;;;;;3.51;95.72;102252.44;5029712;28;20104;-75
2022/01/16 10:50:28;;;;;;;114.13;45.03;;;;;;;3.45;96.22;102253.56;5031740;28;20037;-75
2022/01/16 10:53:01;;;;;;;110.97;41.03;;;;;;;3.49;95.90;102259.38;5046673;28;20040;-75
2022/01/16 10:55:47;;;;;;;115.55;44.10;;;;;;;3.54;95.77;102254.03;5038697;28;20048;-75
2022/01/16 10:58:18;;;;;;;122.35;43.28;;;;;;;3.55;95.89;102264.22;5039853;28;20064;-75
2022/01/16 11:00:54;;;;;;;116.97;44.08;;;;;;;3.61;95.95;102258.78;5029689;28;20036;-76
2022/01/16 11:03:22;;;;;;;110.03;39.65;;;;;;;3.57;95.44;102257.28;5033064;28;20518;-75
2022/01/16 11:05:49;;;;;;;111.30;41.33;;;;;;;3.63;95.75;102268.97;5053398;28;20032;-76
2022/01/16 11:08:20;;;;;;;112.38;40.95;;;;;;;3.67;95.66;102276.47;5052662;28;20044;-76
2022/01/16 11:10:49;;;;;;;112.18;40.35;;;;;;;3.70;95.43;102276.28;5014546;28;20029;-75
2022/01/16 11:13:20;;;;;;;108.78;40.78;;;;;;;3.73;95.15;102277.03;5031859;28;20044;-75
2022/01/16 11:15:51;;;;;;;121.43;43.45;;;;;;;3.85;95.20;102284.16;5029301;28;20064;-76
2022/01/16 11:18:19;;;;;;;144.07;50.10;;;;;;;3.86;94.82;102284.06;5053598;28;20028;-75
2022/01/16 11:20:55;;;;;;;172.80;63.92;;;;;;;3.84;94.68;102285.03;5030677;28;20112;-76
2022/01/16 11:25:50;;;;;;;108.65;41.40;;;;;;;3.86;94.43;102276.38;5033159;28;20368;-76
2022/01/16 11:28:18;;;;;;;120.40;43.05;;;;;;;3.90;94.33;102279.63;5034557;28;20119;-76
2022/01/16 11:30:56;;;;;;;107.95;40.50;;;;;;;3.83;94.45;102279.09;5013972;28;20124;-75
2022/01/16 11:33:23;;;;;;;111.32;40.95;;;;;;;3.91;93.60;102278.72;5051860;28;20411;-75
2022/01/16 11:36:02;;;;;;;109.60;39.85;;;;;;;3.96;93.80;102270.78;5036330;28;20025;-76
2022/01/16 11:38:37;;;;;;;96.60;37.00;;;;;;;3.99;93.81;102271.44;5051466;28;20495;-77
2022/01/16 11:41:39;;;;;;;96.45;36.55;;;;;;;3.93;93.65;102276.06;5030322;28;20040;-75
2022/01/16 11:44:07;;;;;;;101.53;37.80;;;;;;;3.88;92.91;102272.00;5017528;28;20053;-75
2022/01/16 11:46:39;;;;;;;96.40;36.20;;;;;;;3.80;93.62;102263.81;5018974;28;20553;-76
2022/01/16 11:49:06;;;;;;;88.85;34.15;;;;;;;3.75;93.39;102272.66;5036207;28;20080;-75
2022/01/16 11:54:18;;;;;;;87.93;31.73;;;;;;;3.87;92.90;102265.19;5064656;28;20037;-75
2022/01/16 11:56:44;;;;;;;90.07;31.20;;;;;;;3.88;92.96;102284.81;5048244;28;20545;-75
2022/01/16 11:59:18;;;;;;;88.28;34.03;;;;;;;3.92;93.13;102269.25;5032576;28;20028;-76
2022/01/16 12:01:47;;;;;;;85.65;30.60;;;;;;;3.99;92.98;102271.44;5042588;28;20037;-75
2022/01/16 12:04:28;;;;;;;88.28;32.38;;;;;;;4.06;92.64;102274.53;5047300;28;20037;-75
2022/01/16 12:06:58;;;;;;;81.57;30.02;;;;;;;4.05;93.18;102268.59;5031380;28;20094;-77
2022/01/16 12:09:36;;;;;;;89.50;31.38;;;;;;;4.07;93.19;102277.03;5048693;28;20033;-77
2022/01/16 12:12:23;;;;;;;81.13;30.25;;;;;;;4.07;92.41;102268.50;5046436;28;20037;-76